sensor_id;sensor_type;location;lat;lon;timestamp;P1;durP1;ratioP1;P2;durP2;ratioP2
55076;SDS011;40971;44.702;11.030;2022-09-17T00:01:34;17.55;;;2.00;;
55076;SDS011;40971;44.702;11.030;2022-09-17T00:04:00;12.82;;;1.70;;
55076;SDS011;40971;44.702;11.030;2022-09-17T00:06:28;17.13;;;1.92;;
55076;SDS011;40971;44.702;11.030;2022-09-17T00:08:54;8.98;;;1.40;;
55076;SDS011;40971;44.702;11.030;2022-09-17T00:13:47;8.73;;;1.25;;
55076;SDS011;40971;44.702;11.030;2022-09-17T00:16:20;16.42;;;1.67;;
55076;SDS011;40971;44.702;11.030;2022-09-17T00:18:57;12.60;;;1.30;;
55076;SDS011;40971;44.702;11.030;2022-09-17T00:21:24;9.57;;;1.10;;
55076;SDS011;40971;44.702;11.030;2022-09-17T00:23:56;8.63;;;1.25;;
55076;SDS011;40971;44.702;11.030;2022-09-17T00:26:25;11.30;;;1.10;;
55076;SDS011;40971;44.702;11.030;2022-09-17T00:28:52;4.65;;;0.80;;
55076;SDS011;40971;44.702;11.030;2022-09-17T00:31:19;4.88;;;0.75;;
55076;SDS011;40971;44.702;11.030;2022-09-17T00:33:46;12.43;;;1.42;;
55076;SDS011;40971;44.702;11.030;2022-09-17T00:36:12;13.65;;;1.05;;
55076;SDS011;40971;44.702;11.030;2022-09-17T00:38:37;4.43;;;0.63;;
55076;SDS011;40971;44.702;11.030;2022-09-17T00:41:03;8.43;;;1.00;;
55076;SDS011;40971;44.702;11.030;2022-09-17T00:46:00;5.18;;;0.98;;
55076;SDS011;40971;44.702;11.030;2022-09-17T00:48:27;3.50;;;0.90;;
55076;SDS011;40971;44.702;11.030;2022-09-17T00:50:53;5.53;;;1.10;;
55076;SDS011;40971;44.702;11.030;2022-09-17T00:53:20;9.85;;;1.00;;
55076;SDS011;40971;44.702;11.030;2022-09-17T00:55:52;7.10;;;1.00;;
55076;SDS011;40971;44.702;11.030;2022-09-17T00:58:22;4.10;;;0.90;;
55076;SDS011;40971;44.702;11.030;2022-09-17T01:00:49;7.05;;;1.08;;
55076;SDS011;40971;44.702;11.030;2022-09-17T01:03:15;10.50;;;0.80;;
55076;SDS011;40971;44.702;11.030;2022-09-17T01:08:44;7.80;;;0.90;;
55076;SDS011;40971;44.702;11.030;2022-09-17T01:11:39;7.18;;;1.08;;
55076;SDS011;40971;44.702;11.030;2022-09-17T01:19:51;8.20;;;0.90;;
55076;SDS011;40971;44.702;11.030;2022-09-17T01:22:28;10.98;;;1.02;;
55076;SDS011;40971;44.702;11.030;2022-09-17T01:28:34;9.70;;;0.90;;
55076;SDS011;40971;44.702;11.030;2022-09-17T01:36:49;8.68;;;1.23;;
55076;SDS011;40971;44.702;11.030;2022-09-17T01:42:08;7.78;;;1.15;;
55076;SDS011;40971;44.702;11.030;2022-09-17T01:44:59;4.20;;;0.98;;
55076;SDS011;40971;44.702;11.030;2022-09-17T01:47:43;5.53;;;0.80;;
55076;SDS011;40971;44.702;11.030;2022-09-17T01:50:17;10.18;;;0.80;;
55076;SDS011;40971;44.702;11.030;2022-09-17T01:52:53;4.78;;;0.70;;
55076;SDS011;40971;44.702;11.030;2022-09-17T01:55:23;10.23;;;1.60;;
55076;SDS011;40971;44.702;11.030;2022-09-17T01:57:55;10.57;;;1.00;;
55076;SDS011;40971;44.702;11.030;2022-09-17T02:00:24;17.40;;;1.23;;
55076;SDS011;40971;44.702;11.030;2022-09-17T02:02:53;7.57;;;1.10;;
55076;SDS011;40971;44.702;11.030;2022-09-17T02:05:31;4.25;;;0.93;;
55076;SDS011;40971;44.702;11.030;2022-09-17T02:08:04;13.90;;;1.10;;
55076;SDS011;40971;44.702;11.030;2022-09-17T02:10:34;14.10;;;1.45;;
55076;SDS011;40971;44.702;11.030;2022-09-17T02:13:08;9.60;;;1.08;;
55076;SDS011;40971;44.702;11.030;2022-09-17T02:15:42;6.90;;;1.08;;
55076;SDS011;40971;44.702;11.030;2022-09-17T02:18:24;4.97;;;1.08;;
55076;SDS011;40971;44.702;11.030;2022-09-17T02:21:06;3.08;;;0.80;;
55076;SDS011;40971;44.702;11.030;2022-09-17T02:23:33;10.65;;;0.80;;
55076;SDS011;40971;44.702;11.030;2022-09-17T02:28:39;3.75;;;0.70;;
55076;SDS011;40971;44.702;11.030;2022-09-17T02:31:06;7.57;;;0.98;;
55076;SDS011;40971;44.702;11.030;2022-09-17T02:33:32;8.18;;;0.85;;
55076;SDS011;40971;44.702;11.030;2022-09-17T02:36:00;6.22;;;0.82;;
55076;SDS011;40971;44.702;11.030;2022-09-17T02:38:26;3.88;;;0.73;;
55076;SDS011;40971;44.702;11.030;2022-09-17T02:40:59;12.13;;;0.90;;
55076;SDS011;40971;44.702;11.030;2022-09-17T02:43:34;6.22;;;0.90;;
55076;SDS011;40971;44.702;11.030;2022-09-17T02:54:41;5.20;;;0.80;;
55076;SDS011;40971;44.702;11.030;2022-09-17T02:57:39;5.05;;;0.80;;
55076;SDS011;40971;44.702;11.030;2022-09-17T03:00:17;4.45;;;0.70;;
55076;SDS011;40971;44.702;11.030;2022-09-17T03:02:47;3.60;;;0.50;;
55076;SDS011;40971;44.702;11.030;2022-09-17T03:05:19;8.13;;;0.82;;
55076;SDS011;40971;44.702;11.030;2022-09-17T03:07:46;4.40;;;0.88;;
55076;SDS011;40971;44.702;11.030;2022-09-17T03:10:12;6.10;;;0.60;;
55076;SDS011;40971;44.702;11.030;2022-09-17T03:12:38;5.00;;;0.80;;
55076;SDS011;40971;44.702;11.030;2022-09-17T03:15:04;11.43;;;1.02;;
55076;SDS011;40971;44.702;11.030;2022-09-17T03:17:29;6.03;;;0.75;;
55076;SDS011;40971;44.702;11.030;2022-09-17T03:19:55;1.45;;;0.50;;
55076;SDS011;40971;44.702;11.030;2022-09-17T03:22:20;11.02;;;0.88;;
55076;SDS011;40971;44.702;11.030;2022-09-17T03:24:46;4.43;;;0.80;;
55076;SDS011;40971;44.702;11.030;2022-09-17T03:27:11;6.20;;;0.70;;
55076;SDS011;40971;44.702;11.030;2022-09-17T03:29:37;5.53;;;0.65;;
55076;SDS011;40971;44.702;11.030;2022-09-17T03:32:02;7.72;;;0.77;;
55076;SDS011;40971;44.702;11.030;2022-09-17T03:34:28;5.40;;;0.57;;
55076;SDS011;40971;44.702;11.030;2022-09-17T03:36:54;4.78;;;0.60;;
55076;SDS011;40971;44.702;11.030;2022-09-17T03:39:19;6.55;;;0.80;;
55076;SDS011;40971;44.702;11.030;2022-09-17T03:41:44;6.40;;;0.93;;
55076;SDS011;40971;44.702;11.030;2022-09-17T03:44:10;9.95;;;0.90;;
55076;SDS011;40971;44.702;11.030;2022-09-17T03:46:35;3.95;;;0.73;;
55076;SDS011;40971;44.702;11.030;2022-09-17T03:49:01;10.88;;;1.30;;
55076;SDS011;40971;44.702;11.030;2022-09-17T03:51:27;7.22;;;1.00;;
55076;SDS011;40971;44.702;11.030;2022-09-17T03:53:52;4.68;;;0.95;;
55076;SDS011;40971;44.702;11.030;2022-09-17T03:56:18;4.32;;;0.73;;
55076;SDS011;40971;44.702;11.030;2022-09-17T03:58:43;6.18;;;1.25;;
55076;SDS011;40971;44.702;11.030;2022-09-17T04:01:09;11.10;;;1.38;;
55076;SDS011;40971;44.702;11.030;2022-09-17T04:03:34;5.72;;;1.15;;
55076;SDS011;40971;44.702;11.030;2022-09-17T04:06:00;15.30;;;1.48;;
55076;SDS011;40971;44.702;11.030;2022-09-17T04:08:26;10.80;;;1.40;;
55076;SDS011;40971;44.702;11.030;2022-09-17T04:10:52;5.88;;;1.05;;
55076;SDS011;40971;44.702;11.030;2022-09-17T04:13:17;7.57;;;1.42;;
55076;SDS011;40971;44.702;11.030;2022-09-17T04:15:43;6.18;;;0.85;;
55076;SDS011;40971;44.702;11.030;2022-09-17T04:18:10;6.22;;;1.17;;
55076;SDS011;40971;44.702;11.030;2022-09-17T04:20:36;7.38;;;1.08;;
55076;SDS011;40971;44.702;11.030;2022-09-17T04:23:01;6.00;;;1.25;;
55076;SDS011;40971;44.702;11.030;2022-09-17T04:25:27;9.20;;;1.05;;
55076;SDS011;40971;44.702;11.030;2022-09-17T04:27:52;5.55;;;1.00;;
55076;SDS011;40971;44.702;11.030;2022-09-17T04:30:18;8.00;;;1.13;;
55076;SDS011;40971;44.702;11.030;2022-09-17T04:32:43;8.57;;;1.30;;
55076;SDS011;40971;44.702;11.030;2022-09-17T04:35:10;8.57;;;1.13;;
55076;SDS011;40971;44.702;11.030;2022-09-17T04:37:36;7.90;;;1.08;;
55076;SDS011;40971;44.702;11.030;2022-09-17T04:40:02;4.20;;;0.90;;
55076;SDS011;40971;44.702;11.030;2022-09-17T04:42:28;7.95;;;1.23;;
55076;SDS011;40971;44.702;11.030;2022-09-17T04:44:54;6.85;;;1.42;;
55076;SDS011;40971;44.702;11.030;2022-09-17T04:47:19;9.18;;;1.55;;
55076;SDS011;40971;44.702;11.030;2022-09-17T04:49:45;6.32;;;1.10;;
55076;SDS011;40971;44.702;11.030;2022-09-17T04:52:10;6.32;;;1.40;;
55076;SDS011;40971;44.702;11.030;2022-09-17T04:54:36;5.07;;;1.50;;
55076;SDS011;40971;44.702;11.030;2022-09-17T04:57:01;4.65;;;1.00;;
55076;SDS011;40971;44.702;11.030;2022-09-17T04:59:27;12.88;;;1.00;;
55076;SDS011;40971;44.702;11.030;2022-09-17T05:01:52;4.28;;;1.20;;
55076;SDS011;40971;44.702;11.030;2022-09-17T05:04:18;12.35;;;1.40;;
55076;SDS011;40971;44.702;11.030;2022-09-17T05:06:43;6.75;;;1.35;;
55076;SDS011;40971;44.702;11.030;2022-09-17T05:09:09;7.22;;;1.10;;
55076;SDS011;40971;44.702;11.030;2022-09-17T05:11:34;6.40;;;1.00;;
55076;SDS011;40971;44.702;11.030;2022-09-17T05:13:59;4.25;;;0.88;;
55076;SDS011;40971;44.702;11.030;2022-09-17T05:16:25;3.40;;;0.80;;
55076;SDS011;40971;44.702;11.030;2022-09-17T05:18:51;5.68;;;0.60;;
55076;SDS011;40971;44.702;11.030;2022-09-17T05:21:17;2.20;;;0.77;;
55076;SDS011;40971;44.702;11.030;2022-09-17T05:23:42;4.70;;;0.60;;
55076;SDS011;40971;44.702;11.030;2022-09-17T05:26:08;1.85;;;0.60;;
55076;SDS011;40971;44.702;11.030;2022-09-17T05:28:33;5.68;;;0.88;;
55076;SDS011;40971;44.702;11.030;2022-09-17T05:30:59;1.75;;;0.50;;
55076;SDS011;40971;44.702;11.030;2022-09-17T05:33:26;6.72;;;0.88;;
55076;SDS011;40971;44.702;11.030;2022-09-17T05:35:51;5.95;;;0.60;;
55076;SDS011;40971;44.702;11.030;2022-09-17T05:38:17;2.10;;;0.43;;
55076;SDS011;40971;44.702;11.030;2022-09-17T05:40:43;0.82;;;0.40;;
55076;SDS011;40971;44.702;11.030;2022-09-17T05:43:09;1.45;;;0.60;;
55076;SDS011;40971;44.702;11.030;2022-09-17T05:45:35;1.58;;;0.70;;
55076;SDS011;40971;44.702;11.030;2022-09-17T05:48:03;5.97;;;0.90;;
55076;SDS011;40971;44.702;11.030;2022-09-17T05:50:30;6.50;;;0.98;;
55076;SDS011;40971;44.702;11.030;2022-09-17T05:53:00;2.40;;;0.75;;
55076;SDS011;40971;44.702;11.030;2022-09-17T05:55:31;4.10;;;0.80;;
55076;SDS011;40971;44.702;11.030;2022-09-17T05:57:59;5.43;;;1.10;;
55076;SDS011;40971;44.702;11.030;2022-09-17T06:00:25;4.85;;;1.10;;
55076;SDS011;40971;44.702;11.030;2022-09-17T06:02:54;2.33;;;0.60;;
55076;SDS011;40971;44.702;11.030;2022-09-17T06:05:20;4.60;;;1.00;;
55076;SDS011;40971;44.702;11.030;2022-09-17T06:07:46;5.00;;;1.15;;
55076;SDS011;40971;44.702;11.030;2022-09-17T06:10:11;5.53;;;1.20;;
55076;SDS011;40971;44.702;11.030;2022-09-17T06:12:37;5.95;;;0.85;;
55076;SDS011;40971;44.702;11.030;2022-09-17T06:15:03;4.70;;;0.88;;
55076;SDS011;40971;44.702;11.030;2022-09-17T06:17:31;2.72;;;0.80;;
55076;SDS011;40971;44.702;11.030;2022-09-17T06:19:58;3.20;;;0.82;;
55076;SDS011;40971;44.702;11.030;2022-09-17T06:22:23;2.78;;;0.63;;
55076;SDS011;40971;44.702;11.030;2022-09-17T06:24:49;3.67;;;0.80;;
55076;SDS011;40971;44.702;11.030;2022-09-17T06:27:14;2.75;;;0.70;;
55076;SDS011;40971;44.702;11.030;2022-09-17T06:29:40;3.92;;;0.60;;
55076;SDS011;40971;44.702;11.030;2022-09-17T06:32:06;8.32;;;0.90;;
55076;SDS011;40971;44.702;11.030;2022-09-17T06:34:35;3.10;;;1.35;;
55076;SDS011;40971;44.702;11.030;2022-09-17T06:37:00;4.63;;;0.65;;
55076;SDS011;40971;44.702;11.030;2022-09-17T06:39:25;4.90;;;0.80;;
55076;SDS011;40971;44.702;11.030;2022-09-17T06:41:51;3.22;;;0.88;;
55076;SDS011;40971;44.702;11.030;2022-09-17T06:44:16;0.90;;;0.45;;
55076;SDS011;40971;44.702;11.030;2022-09-17T06:46:42;2.38;;;0.70;;
55076;SDS011;40971;44.702;11.030;2022-09-17T06:49:08;3.72;;;0.68;;
55076;SDS011;40971;44.702;11.030;2022-09-17T06:51:33;1.98;;;0.70;;
55076;SDS011;40971;44.702;11.030;2022-09-17T06:53:59;1.67;;;0.60;;
55076;SDS011;40971;44.702;11.030;2022-09-17T06:56:25;2.20;;;0.52;;
55076;SDS011;40971;44.702;11.030;2022-09-17T06:58:51;3.40;;;0.77;;
55076;SDS011;40971;44.702;11.030;2022-09-17T07:01:17;1.45;;;0.60;;
55076;SDS011;40971;44.702;11.030;2022-09-17T07:03:43;2.10;;;0.70;;
55076;SDS011;40971;44.702;11.030;2022-09-17T07:06:08;1.33;;;0.55;;
55076;SDS011;40971;44.702;11.030;2022-09-17T07:08:35;2.35;;;0.80;;
55076;SDS011;40971;44.702;11.030;2022-09-17T07:11:01;4.93;;;0.80;;
55076;SDS011;40971;44.702;11.030;2022-09-17T07:13:27;3.15;;;0.93;;
55076;SDS011;40971;44.702;11.030;2022-09-17T07:15:57;3.90;;;0.80;;
55076;SDS011;40971;44.702;11.030;2022-09-17T07:18:23;6.50;;;0.90;;
55076;SDS011;40971;44.702;11.030;2022-09-17T07:20:56;2.78;;;0.90;;
55076;SDS011;40971;44.702;11.030;2022-09-17T07:23:27;3.15;;;0.75;;
55076;SDS011;40971;44.702;11.030;2022-09-17T07:25:57;6.22;;;1.35;;
55076;SDS011;40971;44.702;11.030;2022-09-17T07:28:24;6.15;;;1.17;;
55076;SDS011;40971;44.702;11.030;2022-09-17T07:30:51;2.50;;;0.90;;
55076;SDS011;40971;44.702;11.030;2022-09-17T07:33:18;6.70;;;1.25;;
55076;SDS011;40971;44.702;11.030;2022-09-17T07:35:57;5.30;;;0.90;;
55076;SDS011;40971;44.702;11.030;2022-09-17T07:38:25;5.97;;;0.93;;
55076;SDS011;40971;44.702;11.030;2022-09-17T07:40:53;4.50;;;1.05;;
55076;SDS011;40971;44.702;11.030;2022-09-17T07:43:26;3.53;;;1.08;;
55076;SDS011;40971;44.702;11.030;2022-09-17T07:45:53;3.63;;;1.20;;
55076;SDS011;40971;44.702;11.030;2022-09-17T07:48:19;8.35;;;1.00;;
55076;SDS011;40971;44.702;11.030;2022-09-17T07:50:45;5.40;;;1.00;;
55076;SDS011;40971;44.702;11.030;2022-09-17T07:53:11;4.55;;;0.95;;
55076;SDS011;40971;44.702;11.030;2022-09-17T07:55:37;4.68;;;1.05;;
55076;SDS011;40971;44.702;11.030;2022-09-17T07:58:02;4.28;;;1.08;;
55076;SDS011;40971;44.702;11.030;2022-09-17T08:00:28;4.25;;;0.75;;
55076;SDS011;40971;44.702;11.030;2022-09-17T08:02:54;3.90;;;1.17;;
55076;SDS011;40971;44.702;11.030;2022-09-17T08:05:20;4.57;;;1.10;;
55076;SDS011;40971;44.702;11.030;2022-09-17T08:07:49;3.08;;;0.80;;
55076;SDS011;40971;44.702;11.030;2022-09-17T08:10:19;3.05;;;0.70;;
55076;SDS011;40971;44.702;11.030;2022-09-17T08:12:53;3.42;;;0.70;;
55076;SDS011;40971;44.702;11.030;2022-09-17T08:15:20;1.35;;;0.60;;
55076;SDS011;40971;44.702;11.030;2022-09-17T08:17:45;2.92;;;0.40;;
55076;SDS011;40971;44.702;11.030;2022-09-17T08:20:12;2.38;;;0.60;;
55076;SDS011;40971;44.702;11.030;2022-09-17T08:22:39;0.98;;;0.40;;
55076;SDS011;40971;44.702;11.030;2022-09-17T08:25:05;2.63;;;0.70;;
55076;SDS011;40971;44.702;11.030;2022-09-17T08:27:32;4.03;;;0.63;;
55076;SDS011;40971;44.702;11.030;2022-09-17T08:29:58;1.60;;;0.52;;
55076;SDS011;40971;44.702;11.030;2022-09-17T08:32:23;2.08;;;0.60;;
55076;SDS011;40971;44.702;11.030;2022-09-17T08:34:49;2.80;;;0.50;;
55076;SDS011;40971;44.702;11.030;2022-09-17T08:37:15;1.20;;;0.50;;
55076;SDS011;40971;44.702;11.030;2022-09-17T08:39:41;1.23;;;0.40;;
55076;SDS011;40971;44.702;11.030;2022-09-17T08:45:29;1.52;;;0.60;;
55076;SDS011;40971;44.702;11.030;2022-09-17T08:47:58;2.53;;;0.88;;
55076;SDS011;40971;44.702;11.030;2022-09-17T08:55:39;1.10;;;0.50;;
55076;SDS011;40971;44.702;11.030;2022-09-17T09:06:20;1.33;;;0.45;;
55076;SDS011;40971;44.702;11.030;2022-09-17T09:08:59;1.65;;;0.50;;
55076;SDS011;40971;44.702;11.030;2022-09-17T09:11:29;2.63;;;0.60;;
55076;SDS011;40971;44.702;11.030;2022-09-17T09:16:47;2.88;;;0.77;;
55076;SDS011;40971;44.702;11.030;2022-09-17T09:25:02;2.08;;;0.60;;
55076;SDS011;40971;44.702;11.030;2022-09-17T09:27:48;4.40;;;1.45;;
55076;SDS011;40971;44.702;11.030;2022-09-17T09:30:16;1.42;;;0.50;;
55076;SDS011;40971;44.702;11.030;2022-09-17T09:35:23;1.52;;;0.60;;
55076;SDS011;40971;44.702;11.030;2022-09-17T09:43:02;1.80;;;0.50;;
55076;SDS011;40971;44.702;11.030;2022-09-17T09:51:24;2.45;;;0.80;;
55076;SDS011;40971;44.702;11.030;2022-09-17T09:57:02;3.75;;;0.60;;
55076;SDS011;40971;44.702;11.030;2022-09-17T09:59:31;5.72;;;0.70;;
55076;SDS011;40971;44.702;11.030;2022-09-17T10:02:00;2.67;;;0.65;;
55076;SDS011;40971;44.702;11.030;2022-09-17T10:04:26;4.43;;;0.60;;
55076;SDS011;40971;44.702;11.030;2022-09-17T10:07:14;2.45;;;0.43;;
55076;SDS011;40971;44.702;11.030;2022-09-17T10:09:41;5.40;;;0.80;;
55076;SDS011;40971;44.702;11.030;2022-09-17T10:14:36;3.80;;;0.80;;
55076;SDS011;40971;44.702;11.030;2022-09-17T10:17:17;1.92;;;0.52;;
55076;SDS011;40971;44.702;11.030;2022-09-17T10:22:32;3.05;;;0.57;;
55076;SDS011;40971;44.702;11.030;2022-09-17T10:25:01;2.75;;;0.70;;
55076;SDS011;40971;44.702;11.030;2022-09-17T10:27:30;1.38;;;0.57;;
55076;SDS011;40971;44.702;11.030;2022-09-17T10:30:12;4.63;;;0.95;;
55076;SDS011;40971;44.702;11.030;2022-09-17T10:32:39;1.73;;;0.57;;
55076;SDS011;40971;44.702;11.030;2022-09-17T10:37:41;3.35;;;0.80;;
55076;SDS011;40971;44.702;11.030;2022-09-17T10:42:47;4.40;;;0.80;;
55076;SDS011;40971;44.702;11.030;2022-09-17T10:45:27;2.70;;;0.80;;
55076;SDS011;40971;44.702;11.030;2022-09-17T10:47:55;2.58;;;0.75;;
55076;SDS011;40971;44.702;11.030;2022-09-17T10:50:23;4.60;;;0.80;;
55076;SDS011;40971;44.702;11.030;2022-09-17T10:53:03;2.92;;;0.73;;
55076;SDS011;40971;44.702;11.030;2022-09-17T10:58:20;2.87;;;0.83;;
55076;SDS011;40971;44.702;11.030;2022-09-17T11:06:22;3.28;;;0.70;;
55076;SDS011;40971;44.702;11.030;2022-09-17T11:14:38;3.70;;;0.60;;
55076;SDS011;40971;44.702;11.030;2022-09-17T11:17:07;2.38;;;0.52;;
55076;SDS011;40971;44.702;11.030;2022-09-17T11:20:02;4.40;;;0.80;;
55076;SDS011;40971;44.702;11.030;2022-09-17T11:25:55;1.17;;;0.50;;
55076;SDS011;40971;44.702;11.030;2022-09-17T11:31:20;2.78;;;0.60;;
55076;SDS011;40971;44.702;11.030;2022-09-17T11:39:35;4.35;;;0.70;;
55076;SDS011;40971;44.702;11.030;2022-09-17T11:42:05;3.60;;;0.75;;
55076;SDS011;40971;44.702;11.030;2022-09-17T11:44:45;2.47;;;0.60;;
55076;SDS011;40971;44.702;11.030;2022-09-17T11:47:17;3.35;;;0.75;;
55076;SDS011;40971;44.702;11.030;2022-09-17T11:55:27;3.13;;;0.70;;
55076;SDS011;40971;44.702;11.030;2022-09-17T11:57:51;2.88;;;0.63;;
55076;SDS011;40971;44.702;11.030;2022-09-17T12:00:24;2.30;;;0.45;;
55076;SDS011;40971;44.702;11.030;2022-09-17T12:11:01;1.27;;;0.32;;
55076;SDS011;40971;44.702;11.030;2022-09-17T12:13:34;2.28;;;0.35;;
55076;SDS011;40971;44.702;11.030;2022-09-17T12:16:30;1.33;;;0.47;;
55076;SDS011;40971;44.702;11.030;2022-09-17T12:19:21;1.30;;;0.40;;
55076;SDS011;40971;44.702;11.030;2022-09-17T12:21:53;1.60;;;0.40;;
55076;SDS011;40971;44.702;11.030;2022-09-17T12:24:25;1.75;;;0.40;;
55076;SDS011;40971;44.702;11.030;2022-09-17T12:54:01;1.92;;;0.28;;
55076;SDS011;40971;44.702;11.030;2022-09-17T12:59:16;1.17;;;0.25;;
55076;SDS011;40971;44.702;11.030;2022-09-17T13:10:04;1.92;;;0.30;;
55076;SDS011;40971;44.702;11.030;2022-09-17T13:13:00;0.75;;;0.25;;
55076;SDS011;40971;44.702;11.030;2022-09-17T13:15:41;2.05;;;0.40;;
55076;SDS011;40971;44.702;11.030;2022-09-17T13:18:19;4.28;;;0.35;;
55076;SDS011;40971;44.702;11.030;2022-09-17T13:21:13;0.43;;;0.20;;
55076;SDS011;40971;44.702;11.030;2022-09-17T13:23:44;1.40;;;0.30;;
55076;SDS011;40971;44.702;11.030;2022-09-17T13:26:13;0.47;;;0.20;;
55076;SDS011;40971;44.702;11.030;2022-09-17T13:28:47;1.08;;;0.30;;
55076;SDS011;40971;44.702;11.030;2022-09-17T13:33:58;1.00;;;0.40;;
55076;SDS011;40971;44.702;11.030;2022-09-17T13:42:04;1.23;;;0.30;;
55076;SDS011;40971;44.702;11.030;2022-09-17T13:44:35;1.20;;;0.40;;
55076;SDS011;40971;44.702;11.030;2022-09-17T13:47:24;1.02;;;0.30;;
55076;SDS011;40971;44.702;11.030;2022-09-17T13:49:56;3.55;;;1.00;;
55076;SDS011;40971;44.702;11.030;2022-09-17T13:52:59;2.38;;;0.50;;
55076;SDS011;40971;44.702;11.030;2022-09-17T13:58:39;1.35;;;0.32;;
55076;SDS011;40971;44.702;11.030;2022-09-17T14:01:00;3.78;;;1.48;;
55076;SDS011;40971;44.702;11.030;2022-09-17T14:27:12;1.58;;;0.52;;
55076;SDS011;40971;44.702;11.030;2022-09-17T14:46:40;2.22;;;0.32;;
55076;SDS011;40971;44.702;11.030;2022-09-17T14:49:12;1.60;;;0.40;;
55076;SDS011;40971;44.702;11.030;2022-09-17T14:51:49;2.13;;;0.57;;
55076;SDS011;40971;44.702;11.030;2022-09-17T14:59:41;2.85;;;0.63;;
55076;SDS011;40971;44.702;11.030;2022-09-17T15:02:22;2.17;;;0.45;;
55076;SDS011;40971;44.702;11.030;2022-09-17T15:04:54;6.05;;;0.60;;
55076;SDS011;40971;44.702;11.030;2022-09-17T15:07:20;4.03;;;0.57;;
55076;SDS011;40971;44.702;11.030;2022-09-17T15:09:46;4.13;;;0.60;;
55076;SDS011;40971;44.702;11.030;2022-09-17T15:12:13;1.52;;;0.40;;
55076;SDS011;40971;44.702;11.030;2022-09-17T15:14:42;3.58;;;0.60;;
55076;SDS011;40971;44.702;11.030;2022-09-17T15:17:13;1.98;;;0.57;;
55076;SDS011;40971;44.702;11.030;2022-09-17T15:19:42;1.52;;;0.30;;
55076;SDS011;40971;44.702;11.030;2022-09-17T15:22:35;3.15;;;0.55;;
55076;SDS011;40971;44.702;11.030;2022-09-17T15:27:38;3.53;;;0.70;;
55076;SDS011;40971;44.702;11.030;2022-09-17T15:30:13;0.90;;;0.40;;
55076;SDS011;40971;44.702;11.030;2022-09-17T15:32:41;5.03;;;0.57;;
55076;SDS011;40971;44.702;11.030;2022-09-17T15:37:46;1.17;;;0.30;;
55076;SDS011;40971;44.702;11.030;2022-09-17T15:40:54;3.35;;;0.60;;
55076;SDS011;40971;44.702;11.030;2022-09-17T15:45:38;1.15;;;0.40;;
55076;SDS011;40971;44.702;11.030;2022-09-17T15:48:14;1.05;;;0.30;;
55076;SDS011;40971;44.702;11.030;2022-09-17T15:50:51;5.25;;;0.65;;
55076;SDS011;40971;44.702;11.030;2022-09-17T15:58:34;1.35;;;0.50;;
55076;SDS011;40971;44.702;11.030;2022-09-17T16:08:50;0.67;;;0.30;;
55076;SDS011;40971;44.702;11.030;2022-09-17T16:11:23;2.17;;;0.40;;
55076;SDS011;40971;44.702;11.030;2022-09-17T16:13:51;1.88;;;0.50;;
55076;SDS011;40971;44.702;11.030;2022-09-17T16:16:19;5.00;;;0.60;;
55076;SDS011;40971;44.702;11.030;2022-09-17T16:18:56;3.13;;;0.57;;
55076;SDS011;40971;44.702;11.030;2022-09-17T16:21:22;4.68;;;0.50;;
55076;SDS011;40971;44.702;11.030;2022-09-17T16:23:47;4.38;;;0.63;;
55076;SDS011;40971;44.702;11.030;2022-09-17T16:26:20;2.92;;;0.57;;
55076;SDS011;40971;44.702;11.030;2022-09-17T16:28:50;3.15;;;0.60;;
55076;SDS011;40971;44.702;11.030;2022-09-17T16:31:18;3.90;;;0.50;;
55076;SDS011;40971;44.702;11.030;2022-09-17T16:33:44;2.67;;;0.50;;
55076;SDS011;40971;44.702;11.030;2022-09-17T16:36:09;1.67;;;0.30;;
55076;SDS011;40971;44.702;11.030;2022-09-17T16:38:35;3.03;;;0.50;;
55076;SDS011;40971;44.702;11.030;2022-09-17T16:41:05;3.83;;;0.50;;
55076;SDS011;40971;44.702;11.030;2022-09-17T16:43:31;1.13;;;0.38;;
55076;SDS011;40971;44.702;11.030;2022-09-17T16:48:34;2.85;;;0.50;;
55076;SDS011;40971;44.702;11.030;2022-09-17T16:51:07;3.28;;;0.57;;
55076;SDS011;40971;44.702;11.030;2022-09-17T16:53:33;3.60;;;0.60;;
55076;SDS011;40971;44.702;11.030;2022-09-17T16:55:59;6.68;;;0.57;;
55076;SDS011;40971;44.702;11.030;2022-09-17T16:58:24;1.95;;;0.40;;
55076;SDS011;40971;44.702;11.030;2022-09-17T17:00:50;3.45;;;0.93;;
55076;SDS011;40971;44.702;11.030;2022-09-17T17:03:15;2.03;;;0.35;;
55076;SDS011;40971;44.702;11.030;2022-09-17T17:05:41;2.72;;;0.60;;
55076;SDS011;40971;44.702;11.030;2022-09-17T17:08:07;1.58;;;0.50;;
55076;SDS011;40971;44.702;11.030;2022-09-17T17:10:34;1.65;;;0.50;;
55076;SDS011;40971;44.702;11.030;2022-09-17T17:13:02;6.30;;;1.10;;
55076;SDS011;40971;44.702;11.030;2022-09-17T17:15:28;1.30;;;0.40;;
55076;SDS011;40971;44.702;11.030;2022-09-17T17:17:54;2.00;;;0.40;;
55076;SDS011;40971;44.702;11.030;2022-09-17T17:20:19;1.67;;;0.45;;
55076;SDS011;40971;44.702;11.030;2022-09-17T17:22:45;2.15;;;0.50;;
55076;SDS011;40971;44.702;11.030;2022-09-17T17:25:11;1.88;;;0.45;;
55076;SDS011;40971;44.702;11.030;2022-09-17T17:27:38;5.32;;;0.75;;
55076;SDS011;40971;44.702;11.030;2022-09-17T17:30:04;3.70;;;0.60;;
55076;SDS011;40971;44.702;11.030;2022-09-17T17:32:32;3.20;;;0.68;;
55076;SDS011;40971;44.702;11.030;2022-09-17T17:34:59;5.53;;;1.08;;
55076;SDS011;40971;44.702;11.030;2022-09-17T17:37:24;6.43;;;0.70;;
55076;SDS011;40971;44.702;11.030;2022-09-17T17:39:52;2.42;;;0.60;;
55076;SDS011;40971;44.702;11.030;2022-09-17T17:42:18;6.53;;;1.13;;
55076;SDS011;40971;44.702;11.030;2022-09-17T17:44:44;14.50;;;1.88;;
55076;SDS011;40971;44.702;11.030;2022-09-17T17:47:09;2.60;;;0.47;;
55076;SDS011;40971;44.702;11.030;2022-09-17T17:49:35;2.45;;;0.68;;
55076;SDS011;40971;44.702;11.030;2022-09-17T17:52:01;2.10;;;0.68;;
55076;SDS011;40971;44.702;11.030;2022-09-17T17:54:26;2.42;;;0.73;;
55076;SDS011;40971;44.702;11.030;2022-09-17T17:56:53;2.92;;;0.68;;
55076;SDS011;40971;44.702;11.030;2022-09-17T17:59:19;5.32;;;0.68;;
55076;SDS011;40971;44.702;11.030;2022-09-17T18:01:45;3.53;;;0.65;;
55076;SDS011;40971;44.702;11.030;2022-09-17T18:04:10;2.38;;;0.50;;
55076;SDS011;40971;44.702;11.030;2022-09-17T18:06:36;2.55;;;0.60;;
55076;SDS011;40971;44.702;11.030;2022-09-17T18:09:02;1.90;;;0.65;;
55076;SDS011;40971;44.702;11.030;2022-09-17T18:11:29;4.38;;;0.80;;
55076;SDS011;40971;44.702;11.030;2022-09-17T18:13:55;2.03;;;0.47;;
55076;SDS011;40971;44.702;11.030;2022-09-17T18:16:22;3.75;;;0.85;;
55076;SDS011;40971;44.702;11.030;2022-09-17T18:18:48;7.57;;;0.75;;
55076;SDS011;40971;44.702;11.030;2022-09-17T18:21:15;2.97;;;0.80;;
55076;SDS011;40971;44.702;11.030;2022-09-17T18:23:44;3.20;;;0.88;;
55076;SDS011;40971;44.702;11.030;2022-09-17T18:26:11;2.13;;;0.60;;
55076;SDS011;40971;44.702;11.030;2022-09-17T18:28:39;4.07;;;0.70;;
55076;SDS011;40971;44.702;11.030;2022-09-17T18:31:05;4.25;;;1.02;;
55076;SDS011;40971;44.702;11.030;2022-09-17T18:33:42;3.63;;;0.82;;
55076;SDS011;40971;44.702;11.030;2022-09-17T18:36:08;4.25;;;0.80;;
55076;SDS011;40971;44.702;11.030;2022-09-17T18:38:34;4.05;;;0.90;;
55076;SDS011;40971;44.702;11.030;2022-09-17T18:41:03;4.45;;;0.75;;
55076;SDS011;40971;44.702;11.030;2022-09-17T18:43:31;2.88;;;0.90;;
55076;SDS011;40971;44.702;11.030;2022-09-17T18:45:58;1.70;;;0.60;;
55076;SDS011;40971;44.702;11.030;2022-09-17T18:48:24;4.53;;;0.82;;
55076;SDS011;40971;44.702;11.030;2022-09-17T18:51:01;2.30;;;0.60;;
55076;SDS011;40971;44.702;11.030;2022-09-17T18:53:29;3.47;;;0.85;;